Time;durP1;ratioP1;P1;durP2;ratioP2;P2;SDS_P1;SDS_P2;PMS_P1;PMS_P2;Temp;Humidity;BMP_temperature;BMP_pressure;BME280_temperature;BME280_humidity;BME280_pressure;Samples;Min_cycle;Max_cycle;Signal;HPM_P1;HPM_P2
2022/06/13 00:00:50;;;;;;;3.60;3.07;;;;;;;;;;4963077;29;20440;-85
2022/06/13 00:03:16;;;;;;;4.57;2.73;;;;;;;;;;4962413;29;20402;-85
2022/06/13 00:05:42;;;;;;;4.30;2.83;;;;;;;;;;4961311;29;20410;-85
2022/06/13 00:08:09;;;;;;;3.63;3.33;;;;;;;;;;4961855;29;20422;-85
2022/06/13 00:10:36;;;;;;;4.83;3.13;;;;;;;;;;4960429;29;20515;-84
2022/06/13 00:13:02;;;;;;;4.50;2.30;;;;;;;;;;4962807;28;20386;-84
2022/06/13 00:15:28;;;;;;;5.90;3.23;;;;;;;;;;4961117;29;21056;-85
2022/06/13 00:17:54;;;;;;;6.20;3.43;;;;;;;;;;4962599;29;20506;-84
2022/06/13 00:20:21;;;;;;;5.77;3.70;;;;;;;;;;4961360;29;20454;-85
2022/06/13 00:22:47;;;;;;;8.20;4.07;;;;;;;;;;4961313;29;20442;-85
2022/06/13 00:25:13;;;;;;;10.23;4.40;;;;;;;;;;4961167;29;20418;-84
2022/06/13 00:27:39;;;;;;;9.80;5.27;;;;;;;;;;4960355;28;20422;-83
2022/06/13 00:30:07;;;;;;;6.10;5.37;;;;;;;;;;4958761;29;20488;-83
2022/06/13 00:32:33;;;;;;;7.23;5.87;;;;;;;;;;4957110;29;20422;-83
2022/06/13 00:34:59;;;;;;;11.83;6.50;;;;;;;;;;4958940;29;20441;-84
2022/06/13 00:37:25;;;;;;;6.90;6.30;;;;;;;;;;4958778;29;20798;-84
2022/06/13 00:39:51;;;;;;;8.87;6.87;;;;;;;;;;4958691;29;20425;-84
2022/06/13 00:42:19;;;;;;;9.33;7.30;;;;;;;;;;4957279;29;21009;-84
2022/06/13 00:45:02;;;;;;;9.30;6.70;;;;;;;;;;4960024;29;20446;-84
2022/06/13 00:47:29;;;;;;;8.57;6.63;;;;;;;;;;4958637;29;20433;-85
2022/06/13 00:49:55;;;;;;;7.53;6.80;;;;;;;;;;4957573;29;20978;-84
2022/06/13 00:52:26;;;;;;;7.93;6.70;;;;;;;;;;4958019;29;20434;-85
2022/06/13 00:54:53;;;;;;;8.77;6.73;;;;;;;;;;4958735;29;20434;-86
2022/06/13 00:57:21;;;;;;;8.40;5.97;;;;;;;;;;4958718;29;20406;-86
2022/06/13 00:59:48;;;;;;;8.40;7.20;;;;;;;;;;4958572;29;20417;-87
2022/06/13 01:02:14;;;;;;;9.37;6.70;;;;;;;;;;4959448;29;20493;-85
2022/06/13 01:04:40;;;;;;;7.33;6.53;;;;;;;;;;4967986;29;20473;-87
2022/06/13 01:07:07;;;;;;;11.50;7.90;;;;;;;;;;4962484;29;20476;-87
2022/06/13 01:12:17;;;;;;;12.10;10.30;;;;;;;;;;4960979;29;20478;-87
2022/06/13 01:14:55;;;;;;;15.87;13.07;;;;;;;;;;4961433;29;20414;-86
2022/06/13 01:17:51;;;;;;;19.43;15.13;;;;;;;;;;4961061;28;20447;-87
2022/06/13 01:20:36;;;;;;;18.30;13.90;;;;;;;;;;4960184;28;20444;-87
2022/06/13 01:23:08;;;;;;;14.87;13.03;;;;;;;;;;4959962;29;20406;-85
2022/06/13 01:25:52;;;;;;;15.10;12.40;;;;;;;;;;4958250;29;20410;-86
2022/06/13 01:28:37;;;;;;;14.80;13.30;;;;;;;;;;4960441;29;20875;-87
2022/06/13 01:31:12;;;;;;;16.03;12.87;;;;;;;;;;4958879;29;20811;-87
2022/06/13 01:33:38;;;;;;;17.50;13.07;;;;;;;;;;4959889;29;20819;-87
2022/06/13 01:36:04;;;;;;;16.27;14.63;;;;;;;;;;4958521;29;20446;-87
2022/06/13 01:38:30;;;;;;;14.33;12.40;;;;;;;;;;4958662;28;20919;-87
2022/06/13 01:41:11;;;;;;;14.63;12.33;;;;;;;;;;4963691;29;20465;-87
2022/06/13 01:43:55;;;;;;;15.20;13.27;;;;;;;;;;4962966;29;20414;-87
2022/06/13 01:46:27;;;;;;;16.03;14.30;;;;;;;;;;4963043;29;20759;-86
2022/06/13 01:49:00;;;;;;;17.60;12.83;;;;;;;;;;4962845;29;20406;-86
2022/06/13 01:51:35;;;;;;;12.93;10.70;;;;;;;;;;4962306;29;20460;-87
2022/06/13 01:54:20;;;;;;;13.00;11.37;;;;;;;;;;4961336;29;20464;-87
2022/06/13 01:56:53;;;;;;;15.27;10.77;;;;;;;;;;4961785;29;20489;-86
2022/06/13 01:59:21;;;;;;;11.97;9.83;;;;;;;;;;4961056;29;20414;-85
2022/06/13 02:01:51;;;;;;;12.00;10.50;;;;;;;;;;4962478;29;20432;-87
2022/06/13 02:04:26;;;;;;;11.00;9.60;;;;;;;;;;4961796;29;20409;-87
2022/06/13 02:07:08;;;;;;;10.70;9.70;;;;;;;;;;4962067;29;20405;-87
2022/06/13 02:09:39;;;;;;;8.97;7.30;;;;;;;;;;4962168;28;20453;-86
2022/06/13 02:12:06;;;;;;;8.80;6.90;;;;;;;;;;4961641;28;20585;-87
2022/06/13 02:14:36;;;;;;;8.63;6.00;;;;;;;;;;4961060;29;20411;-86
2022/06/13 02:17:05;;;;;;;9.27;6.80;;;;;;;;;;4961673;29;20418;-85
2022/06/13 02:19:39;;;;;;;9.50;8.60;;;;;;;;;;4962976;29;20867;-87
2022/06/13 02:22:10;;;;;;;13.73;10.83;;;;;;;;;;4962003;29;20532;-87
2022/06/13 02:24:38;;;;;;;15.10;10.00;;;;;;;;;;4967553;29;20410;-87
2022/06/13 02:27:06;;;;;;;10.40;9.30;;;;;;;;;;4961044;29;20786;-87
2022/06/13 02:29:47;;;;;;;11.90;9.90;;;;;;;;;;4974318;28;20466;-87
2022/06/13 02:32:17;;;;;;;12.40;10.73;;;;;;;;;;4969419;29;20806;-87
2022/06/13 02:34:46;;;;;;;12.43;11.07;;;;;;;;;;4961918;29;20729;-87
2022/06/13 02:37:15;;;;;;;12.47;10.57;;;;;;;;;;4961638;29;20414;-87
2022/06/13 02:39:58;;;;;;;11.90;9.70;;;;;;;;;;4960743;29;20418;-87
2022/06/13 02:42:30;;;;;;;17.13;11.37;;;;;;;;;;4960542;29;20989;-87
2022/06/13 02:45:01;;;;;;;11.90;10.50;;;;;;;;;;4962318;29;20420;-87
2022/06/13 02:47:27;;;;;;;13.57;10.80;;;;;;;;;;4960496;29;20923;-87
2022/06/13 02:50:06;;;;;;;14.23;10.93;;;;;;;;;;4959632;28;20468;-86
2022/06/13 02:52:47;;;;;;;15.03;9.77;;;;;;;;;;4960740;29;20483;-86
2022/06/13 02:55:14;;;;;;;16.33;12.17;;;;;;;;;;4968841;28;20743;-86
2022/06/13 02:57:52;;;;;;;11.60;10.00;;;;;;;;;;4969745;28;20421;-85
2022/06/13 03:00:31;;;;;;;11.53;10.33;;;;;;;;;;4960967;29;20394;-86
2022/06/13 03:03:11;;;;;;;10.77;9.10;;;;;;;;;;4960230;29;20477;-87
2022/06/13 03:05:37;;;;;;;11.37;10.00;;;;;;;;;;4960125;29;20517;-87
2022/06/13 03:08:07;;;;;;;11.53;8.90;;;;;;;;;;4960985;29;20473;-86
2022/06/13 03:10:53;;;;;;;11.33;8.43;;;;;;;;;;4966956;29;20465;-85
2022/06/13 03:13:25;;;;;;;9.97;8.83;;;;;;;;;;4956986;28;20422;-87
2022/06/13 03:16:02;;;;;;;9.50;8.30;;;;;;;;;;4960529;29;20438;-87
2022/06/13 03:18:29;;;;;;;8.87;6.80;;;;;;;;;;4961156;28;20422;-87
2022/06/13 03:21:13;;;;;;;12.83;8.93;;;;;;;;;;4961575;29;20430;-87
2022/06/13 03:23:47;;;;;;;8.03;7.03;;;;;;;;;;4961071;29;20410;-87
2022/06/13 03:26:18;;;;;;;10.27;7.90;;;;;;;;;;4959215;29;20941;-86
2022/06/13 03:28:52;;;;;;;16.57;9.53;;;;;;;;;;4961270;29;20414;-87
2022/06/13 03:31:22;;;;;;;12.43;9.00;;;;;;;;;;4960167;29;20475;-86
2022/06/13 03:33:50;;;;;;;8.93;8.03;;;;;;;;;;4959727;29;20461;-87
2022/06/13 03:36:36;;;;;;;9.53;7.70;;;;;;;;;;4961065;29;20414;-85
2022/06/13 03:39:10;;;;;;;9.67;8.10;;;;;;;;;;4960828;29;20433;-86
2022/06/13 03:41:38;;;;;;;10.90;8.27;;;;;;;;;;4961284;28;20450;-86
2022/06/13 03:44:24;;;;;;;12.50;8.87;;;;;;;;;;4973659;28;20425;-86
2022/06/13 03:47:11;;;;;;;10.00;8.33;;;;;;;;;;4979574;28;20420;-86
2022/06/13 03:49:59;;;;;;;11.57;8.57;;;;;;;;;;4983410;28;20444;-86
2022/06/13 03:52:26;;;;;;;12.30;8.67;;;;;;;;;;4955270;28;20473;-87
2022/06/13 03:54:52;;;;;;;9.60;8.53;;;;;;;;;;4982540;28;20500;-86
2022/06/13 03:57:18;;;;;;;8.00;7.00;;;;;;;;;;4981398;28;20435;-87
2022/06/13 03:59:47;;;;;;;9.10;8.07;;;;;;;;;;4979665;28;20413;-87
2022/06/13 04:02:14;;;;;;;12.10;7.90;;;;;;;;;;4979325;28;20424;-85
2022/06/13 04:04:42;;;;;;;10.97;8.07;;;;;;;;;;4977678;28;20467;-84
2022/06/13 04:07:08;;;;;;;8.47;7.57;;;;;;;;;;4978307;28;20401;-85
2022/06/13 04:10:00;;;;;;;8.67;7.23;;;;;;;;;;4977965;28;20814;-85
2022/06/13 04:12:29;;;;;;;9.33;6.50;;;;;;;;;;4977405;28;20449;-85
2022/06/13 04:14:55;;;;;;;13.30;7.30;;;;;;;;;;4979086;28;20515;-84
2022/06/13 04:17:40;;;;;;;11.30;7.57;;;;;;;;;;4979790;28;20410;-85
2022/06/13 04:20:06;;;;;;;13.03;8.17;;;;;;;;;;4981260;28;20405;-85
2022/06/13 04:22:32;;;;;;;7.40;6.00;;;;;;;;;;4980733;28;20937;-85
2022/06/13 04:25:11;;;;;;;8.10;5.20;;;;;;;;;;4980703;28;20443;-86
2022/06/13 04:27:42;;;;;;;6.80;5.93;;;;;;;;;;4981760;28;20397;-85
2022/06/13 04:30:14;;;;;;;5.73;5.23;;;;;;;;;;4981847;28;20564;-86
2022/06/13 04:32:49;;;;;;;5.57;5.07;;;;;;;;;;4981631;28;20397;-85
2022/06/13 04:35:16;;;;;;;8.77;5.20;;;;;;;;;;4984171;28;20398;-86
2022/06/13 04:37:42;;;;;;;8.40;5.60;;;;;;;;;;4983470;28;20500;-84
2022/06/13 04:40:11;;;;;;;8.03;5.70;;;;;;;;;;4982386;28;20464;-87
2022/06/13 04:42:39;;;;;;;7.17;6.27;;;;;;;;;;4984516;28;20413;-85
2022/06/13 04:45:15;;;;;;;5.10;4.60;;;;;;;;;;4984552;28;20424;-85
2022/06/13 04:47:42;;;;;;;5.60;4.37;;;;;;;;;;4982707;28;20405;-85
2022/06/13 04:50:08;;;;;;;5.50;5.00;;;;;;;;;;4983249;28;20457;-86
2022/06/13 04:52:35;;;;;;;6.80;4.93;;;;;;;;;;4981685;28;20440;-86
2022/06/13 04:55:01;;;;;;;5.70;4.83;;;;;;;;;;4981898;28;20490;-86
2022/06/13 04:57:28;;;;;;;5.13;3.87;;;;;;;;;;4982202;28;20468;-86
2022/06/13 04:59:54;;;;;;;5.13;3.93;;;;;;;;;;4984208;28;20413;-86
2022/06/13 05:02:25;;;;;;;5.63;5.07;;;;;;;;;;4977959;28;20477;-86
2022/06/13 05:04:51;;;;;;;3.47;3.03;;;;;;;;;;4978622;28;20409;-86
2022/06/13 05:07:19;;;;;;;5.23;3.67;;;;;;;;;;4978735;28;20417;-86
2022/06/13 05:10:05;;;;;;;5.70;4.20;;;;;;;;;;4978702;28;20468;-85
2022/06/13 05:12:33;;;;;;;4.97;3.90;;;;;;;;;;4979486;28;20490;-87
2022/06/13 05:15:07;;;;;;;6.30;3.40;;;;;;;;;;4982726;28;20412;-86
2022/06/13 05:17:39;;;;;;;5.40;3.27;;;;;;;;;;4982480;28;20932;-86
2022/06/13 05:20:17;;;;;;;3.70;2.67;;;;;;;;;;4982344;28;20417;-86
2022/06/13 05:22:53;;;;;;;5.13;3.67;;;;;;;;;;4983772;28;20431;-86
2022/06/13 05:25:38;;;;;;;3.17;2.30;;;;;;;;;;4999349;28;20416;-87
2022/06/13 05:28:04;;;;;;;3.97;2.97;;;;;;;;;;4982851;28;20413;-88
2022/06/13 05:30:30;;;;;;;2.70;2.30;;;;;;;;;;4984160;28;20984;-88
2022/06/13 05:32:57;;;;;;;5.63;3.20;;;;;;;;;;4981269;28;20824;-88
2022/06/13 05:35:25;;;;;;;7.80;3.90;;;;;;;;;;4983054;28;20525;-89
2022/06/13 05:37:52;;;;;;;3.50;2.70;;;;;;;;;;4981254;28;20464;-89
2022/06/13 05:40:19;;;;;;;4.23;2.40;;;;;;;;;;4980054;28;20830;-90
2022/06/13 05:42:46;;;;;;;3.80;2.70;;;;;;;;;;4980889;28;20425;-89
2022/06/13 05:45:13;;;;;;;8.10;2.67;;;;;;;;;;4981475;28;20440;-89
2022/06/13 05:47:40;;;;;;;3.40;2.27;;;;;;;;;;4979835;28;20456;-88
2022/06/13 05:50:06;;;;;;;3.77;2.87;;;;;;;;;;4979342;28;20456;-89
2022/06/13 05:52:32;;;;;;;4.83;2.73;;;;;;;;;;4980160;28;20436;-88
2022/06/13 05:54:58;;;;;;;3.50;2.50;;;;;;;;;;4980684;28;20420;-88
2022/06/13 05:57:24;;;;;;;3.70;1.80;;;;;;;;;;4983237;28;20421;-88
2022/06/13 05:59:50;;;;;;;4.67;2.53;;;;;;;;;;4985971;28;20401;-88
2022/06/13 06:02:16;;;;;;;3.17;2.00;;;;;;;;;;4992572;28;20435;-89
2022/06/13 06:04:42;;;;;;;3.83;2.00;;;;;;;;;;4980475;28;20922;-88
2022/06/13 06:07:08;;;;;;;7.57;2.50;;;;;;;;;;4980394;28;20401;-88
2022/06/13 06:09:34;;;;;;;5.17;2.40;;;;;;;;;;4979509;28;20463;-88
2022/06/13 06:12:00;;;;;;;2.83;1.83;;;;;;;;;;4978694;28;20453;-87
2022/06/13 06:14:26;;;;;;;3.10;2.00;;;;;;;;;;4981959;28;20885;-87
2022/06/13 06:16:53;;;;;;;5.70;2.10;;;;;;;;;;4979773;28;20436;-87
2022/06/13 06:19:19;;;;;;;2.97;2.00;;;;;;;;;;4961913;28;20930;-88
2022/06/13 06:21:45;;;;;;;5.30;2.00;;;;;;;;;;4964714;28;20469;-86
2022/06/13 06:24:11;;;;;;;2.43;2.17;;;;;;;;;;4987406;28;20431;-85
2022/06/13 06:26:37;;;;;;;2.87;2.27;;;;;;;;;;5013258;28;20431;-85
2022/06/13 06:29:03;;;;;;;3.70;2.50;;;;;;;;;;4988129;28;20782;-87
2022/06/13 06:31:29;;;;;;;3.53;2.17;;;;;;;;;;4999071;28;20473;-86
2022/06/13 06:33:55;;;;;;;2.63;2.10;;;;;;;;;;4984462;28;20405;-87
2022/06/13 06:36:21;;;;;;;3.63;2.13;;;;;;;;;;5002952;28;20409;-86
2022/06/13 06:38:47;;;;;;;2.10;1.80;;;;;;;;;;5000087;28;20918;-86
2022/06/13 06:41:14;;;;;;;3.93;2.40;;;;;;;;;;4983030;28;20472;-86
2022/06/13 06:43:40;;;;;;;3.17;2.20;;;;;;;;;;4998056;28;20509;-87
2022/06/13 06:46:06;;;;;;;3.20;2.30;;;;;;;;;;4982690;28;20619;-86
2022/06/13 06:48:33;;;;;;;4.27;2.37;;;;;;;;;;4991688;28;20405;-87
2022/06/13 06:50:59;;;;;;;3.53;2.10;;;;;;;;;;5000887;28;20488;-86
2022/06/13 06:53:26;;;;;;;3.20;2.23;;;;;;;;;;4985351;28;20409;-87
2022/06/13 07:01:22;;;;;;;3.03;1.90;;;;;;;;;;4988165;28;20425;-87
2022/06/13 07:03:48;;;;;;;3.10;2.03;;;;;;;;;;4982597;28;20418;-87
2022/06/13 07:06:20;;;;;;;4.30;2.77;;;;;;;;;;4982545;28;20427;-86
2022/06/13 07:09:21;;;;;;;2.90;2.10;;;;;;;;;;4984647;28;20922;-86
2022/06/13 07:11:56;;;;;;;3.60;2.60;;;;;;;;;;4947726;28;20551;-86
2022/06/13 07:14:55;;;;;;;2.80;2.43;;;;;;;;;;4980580;28;20425;-86
2022/06/13 07:17:36;;;;;;;3.50;2.77;;;;;;;;;;4981774;28;20413;-86
2022/06/13 07:20:11;;;;;;;7.40;2.90;;;;;;;;;;4981062;28;20421;-87
2022/06/13 07:22:51;;;;;;;4.10;3.70;;;;;;;;;;4982527;28;20467;-87
2022/06/13 07:25:18;;;;;;;4.30;2.87;;;;;;;;;;4996675;28;20420;-86
2022/06/13 07:27:44;;;;;;;6.63;2.87;;;;;;;;;;4997296;28;20905;-86
2022/06/13 07:30:14;;;;;;;3.53;3.23;;;;;;;;;;4996916;28;20461;-87
2022/06/13 07:32:41;;;;;;;5.00;3.23;;;;;;;;;;4980563;28;20401;-86
2022/06/13 07:35:08;;;;;;;4.57;3.20;;;;;;;;;;4978450;28;20410;-86
2022/06/13 07:40:21;;;;;;;4.10;3.10;;;;;;;;;;4961201;29;20392;-85
2022/06/13 07:42:58;;;;;;;5.30;3.50;;;;;;;;;;4967187;28;20785;-85
2022/06/13 07:45:28;;;;;;;4.10;2.83;;;;;;;;;;4981260;28;20771;-85
2022/06/13 07:48:00;;;;;;;3.27;2.93;;;;;;;;;;4980356;28;20460;-85
2022/06/13 07:50:27;;;;;;;6.07;3.80;;;;;;;;;;4975236;28;20464;-85
2022/06/13 07:53:09;;;;;;;5.70;3.37;;;;;;;;;;4995283;28;20916;-85
2022/06/13 07:55:42;;;;;;;3.90;3.30;;;;;;;;;;4996613;28;20417;-85
2022/06/13 07:58:18;;;;;;;16.23;4.33;;;;;;;;;;4980410;28;20412;-85
2022/06/13 08:00:46;;;;;;;4.87;3.53;;;;;;;;;;4968205;28;20468;-86
2022/06/13 08:03:23;;;;;;;4.10;3.10;;;;;;;;;;4961697;28;20465;-85
2022/06/13 08:05:52;;;;;;;6.27;3.57;;;;;;;;;;4961866;28;20512;-85
2022/06/13 08:08:22;;;;;;;4.60;4.00;;;;;;;;;;4995678;28;20473;-86
2022/06/13 08:10:48;;;;;;;5.20;3.70;;;;;;;;;;4978709;28;20477;-86
2022/06/13 08:13:19;;;;;;;10.23;4.67;;;;;;;;;;4980860;28;20470;-86
2022/06/13 08:15:45;;;;;;;5.93;3.83;;;;;;;;;;4980052;28;20447;-86
2022/06/13 08:18:15;;;;;;;7.30;3.50;;;;;;;;;;4980264;28;20513;-87
2022/06/13 08:20:42;;;;;;;6.73;3.93;;;;;;;;;;4982490;28;20437;-86
2022/06/13 08:23:10;;;;;;;6.87;4.20;;;;;;;;;;4981342;28;20440;-86
2022/06/13 08:25:36;;;;;;;6.70;3.53;;;;;;;;;;4981531;28;20432;-88
2022/06/13 08:28:03;;;;;;;5.23;4.73;;;;;;;;;;4981983;28;20455;-87
2022/06/13 08:30:33;;;;;;;10.37;4.30;;;;;;;;;;4980828;28;20496;-87
2022/06/13 08:32:59;;;;;;;7.73;4.40;;;;;;;;;;4984173;28;20417;-87
2022/06/13 08:35:26;;;;;;;5.60;4.00;;;;;;;;;;4985108;28;20409;-87
2022/06/13 08:37:52;;;;;;;7.57;3.90;;;;;;;;;;4984428;28;20906;-87
2022/06/13 08:40:18;;;;;;;6.90;3.50;;;;;;;;;;4982727;28;20417;-87
2022/06/13 08:42:44;;;;;;;7.17;3.40;;;;;;;;;;4984589;28;20412;-87
2022/06/13 08:45:17;;;;;;;4.67;3.73;;;;;;;;;;4985948;28;20437;-88
2022/06/13 08:47:46;;;;;;;5.83;2.93;;;;;;;;;;4985427;28;20443;-87
2022/06/13 08:50:15;;;;;;;5.50;2.83;;;;;;;;;;4986826;28;20988;-87
2022/06/13 08:52:44;;;;;;;3.60;3.00;;;;;;;;;;4986894;28;20463;-87
2022/06/13 08:55:10;;;;;;;5.27;2.90;;;;;;;;;;4984758;28;20919;-87
2022/06/13 08:57:42;;;;;;;5.10;3.03;;;;;;;;;;4984849;28;20417;-85
2022/06/13 09:00:11;;;;;;;3.60;2.43;;;;;;;;;;4982667;28;20401;-87
2022/06/13 09:02:44;;;;;;;5.27;3.37;;;;;;;;;;4999597;28;20420;-89
2022/06/13 09:05:13;;;;;;;6.23;3.10;;;;;;;;;;4984942;28;20901;-86
2022/06/13 09:07:55;;;;;;;4.53;2.80;;;;;;;;;;4986694;28;20409;-87
2022/06/13 09:10:40;;;;;;;4.63;3.10;;;;;;;;;;4985602;28;20539;-86
2022/06/13 09:13:13;;;;;;;8.43;3.70;;;;;;;;;;4987329;28;20421;-88
2022/06/13 09:15:48;;;;;;;7.63;3.10;;;;;;;;;;4983960;28;20401;-87
2022/06/13 09:18:34;;;;;;;7.20;3.23;;;;;;;;;;4986402;28;20463;-86
2022/06/13 09:21:21;;;;;;;;;;;;;;;;;;;;;
2022/06/13 09:23:51;;;;;;;3.87;3.20;;;;;;;;;;4989497;28;20903;-87
2022/06/13 09:26:22;;;;;;;5.93;3.00;;;;;;;;;;5002670;28;20564;-87
2022/06/13 09:28:51;;;;;;;4.37;2.40;;;;;;;;;;4983830;28;20856;-87
2022/06/13 09:31:44;;;;;;;3.47;2.57;;;;;;;;;;4983933;28;20464;-87
2022/06/13 09:34:19;;;;;;;5.10;2.93;;;;;;;;;;4976546;28;20449;-88
2022/06/13 09:36:53;;;;;;;4.73;2.40;;;;;;;;;;4986840;28;20412;-87
2022/06/13 09:39:19;;;;;;;9.80;2.60;;;;;;;;;;5001494;28;20405;-88
2022/06/13 09:41:45;;;;;;;4.77;2.30;;;;;;;;;;4992115;28;20445;-88
2022/06/13 09:44:14;;;;;;;3.97;2.87;;;;;;;;;;4976669;28;20426;-87
2022/06/13 09:46:52;;;;;;;6.03;2.40;;;;;;;;;;4995680;28;20418;-87
2022/06/13 09:49:38;;;;;;;5.83;2.53;;;;;;;;;;4991936;28;20456;-87
2022/06/13 09:52:18;;;;;;;5.93;2.53;;;;;;;;;;4985101;28;20451;-86
2022/06/13 09:54:51;;;;;;;4.40;2.10;;;;;;;;;;4968953;28;20426;-88
2022/06/13 09:57:23;;;;;;;2.60;2.00;;;;;;;;;;4968955;28;20459;-88
2022/06/13 10:00:01;;;;;;;4.70;2.33;;;;;;;;;;4982217;28;20421;-86
2022/06/13 10:02:48;;;;;;;4.97;1.93;;;;;;;;;;4982396;28;20444;-87
2022/06/13 10:05:29;;;;;;;8.83;2.20;;;;;;;;;;4982915;28;20423;-86
2022/06/13 10:08:14;;;;;;;6.17;2.00;;;;;;;;;;4984492;28;20417;-87
2022/06/13 10:10:43;;;;;;;4.80;2.63;;;;;;;;;;4983853;28;20468;-88
2022/06/13 10:13:28;;;;;;;9.77;2.80;;;;;;;;;;4982544;28;20456;-88
2022/06/13 10:15:57;;;;;;;8.10;2.70;;;;;;;;;;4984520;28;20431;-86
2022/06/13 10:18:43;;;;;;;5.10;2.60;;;;;;;;;;4983194;28;20428;-86
2022/06/13 10:21:09;;;;;;;5.97;2.37;;;;;;;;;;4983374;28;20456;-87
2022/06/13 10:23:54;;;;;;;8.00;3.50;;;;;;;;;;4983542;28;20421;-87
2022/06/13 10:26:23;;;;;;;5.50;4.17;;;;;;;;;;4983001;28;20421;-87
2022/06/13 10:28:49;;;;;;;5.70;3.80;;;;;;;;;;4963766;28;20887;-86
2022/06/13 10:31:33;;;;;;;9.23;2.63;;;;;;;;;;4965421;28;20475;-86
2022/06/13 10:34:05;;;;;;;5.87;2.40;;;;;;;;;;4982891;28;20431;-86
2022/06/13 10:36:50;;;;;;;4.30;2.13;;;;;;;;;;4965014;28;20421;-88
2022/06/13 10:39:18;;;;;;;3.33;1.80;;;;;;;;;;4967546;28;20996;-87
2022/06/13 10:41:46;;;;;;;3.00;1.90;;;;;;;;;;4980405;28;20445;-88
2022/06/13 10:44:13;;;;;;;4.30;1.90;;;;;;;;;;4982352;28;20917;-86
2022/06/13 10:46:44;;;;;;;6.53;1.80;;;;;;;;;;4984220;28;20444;-88
2022/06/13 10:49:20;;;;;;;6.97;1.90;;;;;;;;;;4980761;28;20412;-87
2022/06/13 10:51:46;;;;;;;5.00;1.80;;;;;;;;;;4983199;28;20443;-86
2022/06/13 10:54:34;;;;;;;5.20;1.93;;;;;;;;;;4977756;28;20422;-87
2022/06/13 10:57:03;;;;;;;4.17;2.07;;;;;;;;;;4980056;28;20457;-87
2022/06/13 10:59:31;;;;;;;3.57;2.00;;;;;;;;;;4972843;28;20410;-86
2022/06/13 11:02:00;;;;;;;4.20;2.27;;;;;;;;;;4984262;28;20440;-87
2022/06/13 11:04:28;;;;;;;6.73;2.40;;;;;;;;;;4985260;28;20545;-86
2022/06/13 11:06:57;;;;;;;5.23;2.40;;;;;;;;;;4981400;28;20441;-85
2022/06/13 11:09:26;;;;;;;2.80;2.10;;;;;;;;;;4979613;28;20467;-84
2022/06/13 11:12:01;;;;;;;4.00;2.37;;;;;;;;;;4987716;28;20475;-85
2022/06/13 11:14:36;;;;;;;6.40;2.27;;;;;;;;;;4987855;28;20397;-85
2022/06/13 11:22:39;;;;;;;4.10;2.13;;;;;;;;;;4986728;28;20483;-87
2022/06/13 11:25:08;;;;;;;5.97;2.03;;;;;;;;;;4977913;28;20416;-85
2022/06/13 11:27:39;;;;;;;7.83;2.00;;;;;;;;;;4980824;28;20909;-85
2022/06/13 11:30:21;;;;;;;6.63;1.70;;;;;;;;;;4980260;28;20841;-84
2022/06/13 11:33:05;;;;;;;3.90;1.60;;;;;;;;;;4982024;28;20421;-86
2022/06/13 11:35:36;;;;;;;3.17;1.53;;;;;;;;;;4980545;28;20791;-86
2022/06/13 11:38:16;;;;;;;5.37;2.10;;;;;;;;;;4995491;28;20492;-85
2022/06/13 11:40:45;;;;;;;5.97;2.80;;;;;;;;;;4979941;28;20692;-85
2022/06/13 11:43:18;;;;;;;4.60;2.17;;;;;;;;;;4995365;28;20421;-84
2022/06/13 11:45:46;;;;;;;5.13;1.80;;;;;;;;;;4979872;28;20388;-86
2022/06/13 11:48:14;;;;;;;4.77;1.83;;;;;;;;;;4994467;28;20405;-85
2022/06/13 11:50:40;;;;;;;4.63;2.27;;;;;;;;;;4993386;28;20548;-86
2022/06/13 11:55:59;;;;;;;7.60;2.27;;;;;;;;;;4978642;28;20409;-85
2022/06/13 11:58:26;;;;;;;4.73;1.93;;;;;;;;;;4979208;28;20461;-85
2022/06/13 12:00:54;;;;;;;3.90;2.50;;;;;;;;;;4979934;28;20425;-85
2022/06/13 12:03:21;;;;;;;4.60;2.20;;;;;;;;;;4979133;28;20402;-86
2022/06/13 12:05:50;;;;;;;5.10;2.10;;;;;;;;;;4979415;28;20409;-85
2022/06/13 12:08:16;;;;;;;4.90;2.23;;;;;;;;;;5002044;28;20427;-86
2022/06/13 12:10:52;;;;;;;4.80;1.90;;;;;;;;;;4982455;28;20500;-84
2022/06/13 12:13:20;;;;;;;5.20;1.70;;;;;;;;;;4981254;28;20404;-83
2022/06/13 12:16:06;;;;;;;4.63;2.17;;;;;;;;;;4980820;28;20408;-85
2022/06/13 12:18:35;;;;;;;4.50;1.90;;;;;;;;;;4980700;28;20413;-84
2022/06/13 12:21:08;;;;;;;4.47;1.80;;;;;;;;;;4981202;28;20504;-85
2022/06/13 12:23:38;;;;;;;4.50;1.93;;;;;;;;;;4994194;28;20405;-85
2022/06/13 12:26:17;;;;;;;5.50;2.07;;;;;;;;;;4979168;28;20833;-85
2022/06/13 12:29:02;;;;;;;9.70;2.37;;;;;;;;;;4994290;28;20448;-85
2022/06/13 12:31:28;;;;;;;3.40;1.63;;;;;;;;;;4995897;28;20470;-84
2022/06/13 12:33:54;;;;;;;3.70;1.63;;;;;;;;;;4995173;28;20496;-85
2022/06/13 12:36:38;;;;;;;5.47;2.10;;;;;;;;;;4979419;28;20429;-85
2022/06/13 12:39:16;;;;;;;4.73;1.63;;;;;;;;;;4980611;28;20445;-85
2022/06/13 12:41:48;;;;;;;5.50;1.73;;;;;;;;;;4978921;28;20447;-87
2022/06/13 12:44:33;;;;;;;5.50;1.90;;;;;;;;;;4978929;28;20453;-86
2022/06/13 12:47:18;;;;;;;4.73;2.33;;;;;;;;;;4978435;28;21016;-85
2022/06/13 12:49:47;;;;;;;4.50;1.60;;;;;;;;;;4979346;28;20968;-86
2022/06/13 12:52:28;;;;;;;3.07;1.50;;;;;;;;;;4984123;28;20443;-86
2022/06/13 12:54:54;;;;;;;5.00;1.70;;;;;;;;;;4995031;28;20405;-85
2022/06/13 12:57:27;;;;;;;2.60;1.50;;;;;;;;;;4987313;28;20469;-86
2022/06/13 13:00:08;;;;;;;4.03;2.10;;;;;;;;;;4991017;28;20505;-86
2022/06/13 13:02:53;;;;;;;7.80;2.10;;;;;;;;;;4975842;28;20406;-86
2022/06/13 13:05:19;;;;;;;6.63;1.97;;;;;;;;;;4970752;28;20424;-85
2022/06/13 13:08:05;;;;;;;4.30;1.93;;;;;;;;;;4979479;28;20405;-85
2022/06/13 13:10:37;;;;;;;6.07;1.80;;;;;;;;;;4960536;28;20620;-86
2022/06/13 13:13:17;;;;;;;5.07;2.03;;;;;;;;;;4976074;28;20509;-84
2022/06/13 13:15:59;;;;;;;4.33;1.60;;;;;;;;;;4970324;28;20433;-85
2022/06/13 13:18:31;;;;;;;2.87;1.57;;;;;;;;;;4965557;28;20541;-84
2022/06/13 13:21:04;;;;;;;4.00;1.77;;;;;;;;;;4978010;28;20440;-84
2022/06/13 13:23:48;;;;;;;3.77;1.87;;;;;;;;;;4978266;28;20409;-85
2022/06/13 13:26:36;;;;;;;8.40;1.90;;;;;;;;;;4977968;28;20449;-85
2022/06/13 13:29:05;;;;;;;3.07;1.33;;;;;;;;;;4983492;28;20426;-84
2022/06/13 13:31:31;;;;;;;3.23;1.50;;;;;;;;;;4958160;29;20474;-85
2022/06/13 13:34:05;;;;;;;3.70;1.80;;;;;;;;;;4978549;28;20836;-86
2022/06/13 13:36:57;;;;;;;5.27;1.97;;;;;;;;;;4999135;28;20460;-86
2022/06/13 13:39:58;;;;;;;4.97;1.90;;;;;;;;;;4951164;28;20508;-86
2022/06/13 13:42:24;;;;;;;3.30;1.90;;;;;;;;;;4922897;29;20800;-86
2022/06/13 13:44:57;;;;;;;5.10;1.83;;;;;;;;;;4964198;28;20909;-85
2022/06/13 13:47:24;;;;;;;4.20;1.60;;;;;;;;;;4995764;28;20414;-85
2022/06/13 13:49:53;;;;;;;3.83;1.63;;;;;;;;;;4995808;28;20459;-86
2022/06/13 13:52:20;;;;;;;4.83;1.90;;;;;;;;;;4989545;28;20432;-85
2022/06/13 13:54:48;;;;;;;5.20;1.70;;;;;;;;;;5000515;28;20948;-85
2022/06/13 13:57:20;;;;;;;4.00;1.80;;;;;;;;;;4983669;28;20472;-85
2022/06/13 13:59:51;;;;;;;8.40;2.13;;;;;;;;;;4982461;28;20433;-84
2022/06/13 14:02:23;;;;;;;4.20;1.77;;;;;;;;;;4979224;28;20869;-84
2022/06/13 14:04:54;;;;;;;6.43;2.00;;;;;;;;;;4981104;28;20416;-86
2022/06/13 14:07:35;;;;;;;8.43;2.03;;;;;;;;;;4981582;28;20424;-86
2022/06/13 14:10:02;;;;;;;8.90;2.23;;;;;;;;;;4980370;28;20532;-83
2022/06/13 14:12:28;;;;;;;4.87;1.80;;;;;;;;;;4965684;28;20531;-84
2022/06/13 14:15:00;;;;;;;4.90;2.17;;;;;;;;;;4981969;28;20483;-85
2022/06/13 14:17:32;;;;;;;8.23;2.20;;;;;;;;;;4986897;28;20953;-85
2022/06/13 14:20:00;;;;;;;6.03;1.70;;;;;;;;;;4981256;28;20413;-85
2022/06/13 14:22:27;;;;;;;2.50;1.57;;;;;;;;;;4980011;28;20437;-86
2022/06/13 14:25:01;;;;;;;4.40;1.83;;;;;;;;;;4978312;28;20436;-83
2022/06/13 14:27:27;;;;;;;3.20;1.67;;;;;;;;;;4980689;28;20414;-84
2022/06/13 14:31:03;;;;;;;3.07;1.93;;;;;;;;;;4975376;28;20988;-84
2022/06/13 14:32:40;;;;;;;4.90;1.80;;;;;;;;;;4978765;28;20425;-85
2022/06/13 14:35:16;;;;;;;6.23;1.90;;;;;;;;;;4980262;28;20425;-85
2022/06/13 14:37:47;;;;;;;3.37;1.77;;;;;;;;;;4978528;28;20419;-86
2022/06/13 14:40:25;;;;;;;3.43;1.60;;;;;;;;;;4978745;28;20405;-84
2022/06/13 14:42:56;;;;;;;5.87;1.93;;;;;;;;;;4969964;28;20425;-84
2022/06/13 14:45:22;;;;;;;3.20;2.17;;;;;;;;;;4979156;28;20798;-84
2022/06/13 14:48:08;;;;;;;4.20;1.90;;;;;;;;;;4979102;28;20428;-83
2022/06/13 14:50:43;;;;;;;4.63;2.00;;;;;;;;;;4971954;28;20472;-84
2022/06/13 14:53:27;;;;;;;4.40;1.97;;;;;;;;;;4981490;28;20504;-85
2022/06/13 14:56:08;;;;;;;3.07;1.63;;;;;;;;;;4984878;28;20479;-85
2022/06/13 14:58:44;;;;;;;3.73;1.53;;;;;;;;;;4965800;29;20440;-85
2022/06/13 15:01:22;;;;;;;7.60;2.23;;;;;;;;;;4972631;28;20428;-86
2022/06/13 15:04:04;;;;;;;4.83;2.10;;;;;;;;;;4984292;28;20424;-87
2022/06/13 15:06:31;;;;;;;4.00;2.00;;;;;;;;;;4982142;28;20441;-87
2022/06/13 15:08:57;;;;;;;3.97;1.67;;;;;;;;;;4989598;28;20417;-86
2022/06/13 15:11:24;;;;;;;4.53;1.80;;;;;;;;;;4983664;28;20477;-86
2022/06/13 15:13:50;;;;;;;3.80;1.93;;;;;;;;;;4964946;28;20417;-87
2022/06/13 15:16:16;;;;;;;4.17;1.73;;;;;;;;;;4982481;28;20421;-87
2022/06/13 15:18:45;;;;;;;7.77;2.23;;;;;;;;;;4983314;28;20409;-88
2022/06/13 15:21:19;;;;;;;2.60;1.73;;;;;;;;;;4982382;28;20456;-87
2022/06/13 15:23:47;;;;;;;4.43;1.90;;;;;;;;;;4983830;28;20412;-87
2022/06/13 15:26:25;;;;;;;4.83;2.10;;;;;;;;;;4962376;29;20504;-88
2022/06/13 15:29:14;;;;;;;3.97;1.60;;;;;;;;;;4963137;29;20449;-87